sensor_id;sensor_type;location;lat;lon;timestamp;P1;durP1;ratioP1;P2;durP2;ratioP2
25972;SDS011;13765;51.166;4.466;2023-03-15T00:01:00;4.60;;;2.33;;
25972;SDS011;13765;51.166;4.466;2023-03-15T00:03:35;8.10;;;2.10;;
25972;SDS011;13765;51.166;4.466;2023-03-15T00:06:02;6.82;;;1.63;;
25972;SDS011;13765;51.166;4.466;2023-03-15T00:08:30;8.43;;;1.65;;
25972;SDS011;13765;51.166;4.466;2023-03-15T00:11:01;2.67;;;1.50;;
25972;SDS011;13765;51.166;4.466;2023-03-15T00:13:30;2.75;;;1.95;;
25972;SDS011;13765;51.166;4.466;2023-03-15T00:15:57;2.75;;;1.83;;
25972;SDS011;13765;51.166;4.466;2023-03-15T00:18:24;2.90;;;1.85;;
25972;SDS011;13765;51.166;4.466;2023-03-15T00:20:50;3.10;;;2.20;;
25972;SDS011;13765;51.166;4.466;2023-03-15T00:23:18;8.00;;;2.42;;
25972;SDS011;13765;51.166;4.466;2023-03-15T00:25:50;6.35;;;2.50;;
25972;SDS011;13765;51.166;4.466;2023-03-15T00:28:16;4.72;;;2.53;;
25972;SDS011;13765;51.166;4.466;2023-03-15T00:30:45;2.35;;;1.85;;
25972;SDS011;13765;51.166;4.466;2023-03-15T00:33:13;7.35;;;2.95;;
25972;SDS011;13765;51.166;4.466;2023-03-15T00:35:40;4.60;;;2.28;;
25972;SDS011;13765;51.166;4.466;2023-03-15T00:38:07;3.97;;;1.95;;
25972;SDS011;13765;51.166;4.466;2023-03-15T00:40:37;5.57;;;2.75;;
25972;SDS011;13765;51.166;4.466;2023-03-15T00:43:05;10.60;;;3.50;;
25972;SDS011;13765;51.166;4.466;2023-03-15T00:45:31;4.57;;;2.72;;
25972;SDS011;13765;51.166;4.466;2023-03-15T00:47:57;6.55;;;3.15;;
25972;SDS011;13765;51.166;4.466;2023-03-15T00:50:25;6.97;;;2.92;;
25972;SDS011;13765;51.166;4.466;2023-03-15T00:52:53;7.47;;;3.08;;
25972;SDS011;13765;51.166;4.466;2023-03-15T00:55:19;6.57;;;3.97;;
25972;SDS011;13765;51.166;4.466;2023-03-15T00:57:47;6.63;;;3.47;;
25972;SDS011;13765;51.166;4.466;2023-03-15T01:00:16;9.43;;;3.72;;
25972;SDS011;13765;51.166;4.466;2023-03-15T01:02:48;8.88;;;3.85;;
25972;SDS011;13765;51.166;4.466;2023-03-15T01:05:17;17.73;;;4.57;;
25972;SDS011;13765;51.166;4.466;2023-03-15T01:07:43;13.80;;;5.82;;
25972;SDS011;13765;51.166;4.466;2023-03-15T01:10:09;10.93;;;4.97;;
25972;SDS011;13765;51.166;4.466;2023-03-15T01:12:37;11.70;;;4.70;;
25972;SDS011;13765;51.166;4.466;2023-03-15T01:15:05;11.10;;;4.32;;
25972;SDS011;13765;51.166;4.466;2023-03-15T01:17:32;16.98;;;4.32;;
25972;SDS011;13765;51.166;4.466;2023-03-15T01:19:58;11.98;;;4.40;;
25972;SDS011;13765;51.166;4.466;2023-03-15T01:22:29;16.02;;;4.38;;
25972;SDS011;13765;51.166;4.466;2023-03-15T01:24:55;9.30;;;4.65;;
25972;SDS011;13765;51.166;4.466;2023-03-15T01:27:20;10.80;;;4.10;;
25972;SDS011;13765;51.166;4.466;2023-03-15T01:29:46;11.27;;;4.60;;
25972;SDS011;13765;51.166;4.466;2023-03-15T01:32:12;9.82;;;4.53;;
25972;SDS011;13765;51.166;4.466;2023-03-15T01:34:40;9.55;;;4.75;;
25972;SDS011;13765;51.166;4.466;2023-03-15T01:37:11;8.90;;;4.28;;
25972;SDS011;13765;51.166;4.466;2023-03-15T01:39:38;9.50;;;4.22;;
25972;SDS011;13765;51.166;4.466;2023-03-15T01:42:07;11.43;;;4.65;;
25972;SDS011;13765;51.166;4.466;2023-03-15T01:47:16;10.02;;;4.78;;
25972;SDS011;13765;51.166;4.466;2023-03-15T01:49:42;12.43;;;4.45;;
25972;SDS011;13765;51.166;4.466;2023-03-15T01:52:17;12.20;;;4.40;;
25972;SDS011;13765;51.166;4.466;2023-03-15T01:57:28;10.48;;;5.03;;
25972;SDS011;13765;51.166;4.466;2023-03-15T01:59:59;19.40;;;5.45;;
25972;SDS011;13765;51.166;4.466;2023-03-15T02:02:34;15.07;;;5.40;;
25972;SDS011;13765;51.166;4.466;2023-03-15T02:05:08;12.00;;;4.75;;
25972;SDS011;13765;51.166;4.466;2023-03-15T02:07:38;11.18;;;4.95;;
25972;SDS011;13765;51.166;4.466;2023-03-15T02:10:17;13.27;;;4.97;;
25972;SDS011;13765;51.166;4.466;2023-03-15T02:12:51;11.63;;;5.40;;
25972;SDS011;13765;51.166;4.466;2023-03-15T02:15:19;13.27;;;5.55;;
25972;SDS011;13765;51.166;4.466;2023-03-15T02:17:45;11.32;;;4.30;;
25972;SDS011;13765;51.166;4.466;2023-03-15T02:23:00;15.35;;;6.13;;
25972;SDS011;13765;51.166;4.466;2023-03-15T02:28:00;10.48;;;5.18;;
25972;SDS011;13765;51.166;4.466;2023-03-15T02:30:29;15.80;;;5.40;;
25972;SDS011;13765;51.166;4.466;2023-03-15T02:32:56;14.10;;;4.50;;
25972;SDS011;13765;51.166;4.466;2023-03-15T02:35:28;9.07;;;4.30;;
25972;SDS011;13765;51.166;4.466;2023-03-15T02:37:56;14.93;;;5.50;;
25972;SDS011;13765;51.166;4.466;2023-03-15T02:40:28;13.45;;;5.40;;
25972;SDS011;13765;51.166;4.466;2023-03-15T02:42:56;13.90;;;4.47;;
25972;SDS011;13765;51.166;4.466;2023-03-15T02:45:28;14.38;;;5.75;;
25972;SDS011;13765;51.166;4.466;2023-03-15T02:47:58;16.27;;;5.40;;
25972;SDS011;13765;51.166;4.466;2023-03-15T02:50:25;14.07;;;6.10;;
25972;SDS011;13765;51.166;4.466;2023-03-15T02:52:51;11.50;;;5.55;;
25972;SDS011;13765;51.166;4.466;2023-03-15T02:55:17;13.30;;;6.03;;
25972;SDS011;13765;51.166;4.466;2023-03-15T02:57:43;11.00;;;4.88;;
25972;SDS011;13765;51.166;4.466;2023-03-15T03:00:10;13.55;;;5.45;;
25972;SDS011;13765;51.166;4.466;2023-03-15T03:02:38;21.58;;;6.60;;
25972;SDS011;13765;51.166;4.466;2023-03-15T03:05:09;13.55;;;5.68;;
25972;SDS011;13765;51.166;4.466;2023-03-15T03:07:37;15.93;;;6.03;;
25972;SDS011;13765;51.166;4.466;2023-03-15T03:10:07;13.40;;;5.28;;
25972;SDS011;13765;51.166;4.466;2023-03-15T03:12:34;14.98;;;6.07;;
25972;SDS011;13765;51.166;4.466;2023-03-15T03:15:05;12.30;;;4.72;;
25972;SDS011;13765;51.166;4.466;2023-03-15T03:17:32;13.20;;;6.07;;
25972;SDS011;13765;51.166;4.466;2023-03-15T03:20:10;20.17;;;5.22;;
25972;SDS011;13765;51.166;4.466;2023-03-15T03:22:38;15.10;;;4.50;;
25972;SDS011;13765;51.166;4.466;2023-03-15T03:25:06;18.52;;;5.95;;
25972;SDS011;13765;51.166;4.466;2023-03-15T03:27:36;12.13;;;4.97;;
25972;SDS011;13765;51.166;4.466;2023-03-15T03:30:06;17.13;;;6.10;;
25972;SDS011;13765;51.166;4.466;2023-03-15T03:32:33;15.95;;;6.85;;
25972;SDS011;13765;51.166;4.466;2023-03-15T03:34:59;16.33;;;6.45;;
25972;SDS011;13765;51.166;4.466;2023-03-15T03:37:25;14.63;;;5.75;;
25972;SDS011;13765;51.166;4.466;2023-03-15T03:39:54;15.38;;;6.25;;
25972;SDS011;13765;51.166;4.466;2023-03-15T03:42:22;14.07;;;5.63;;
25972;SDS011;13765;51.166;4.466;2023-03-15T03:44:48;15.70;;;6.95;;
25972;SDS011;13765;51.166;4.466;2023-03-15T03:47:14;14.88;;;6.40;;
25972;SDS011;13765;51.166;4.466;2023-03-15T03:49:40;17.10;;;6.72;;
25972;SDS011;13765;51.166;4.466;2023-03-15T03:52:08;16.40;;;7.68;;
25972;SDS011;13765;51.166;4.466;2023-03-15T03:54:34;19.83;;;7.03;;
25972;SDS011;13765;51.166;4.466;2023-03-15T03:56:59;21.02;;;6.63;;
25972;SDS011;13765;51.166;4.466;2023-03-15T03:59:25;13.40;;;5.95;;
25972;SDS011;13765;51.166;4.466;2023-03-15T04:01:53;15.48;;;6.72;;
25972;SDS011;13765;51.166;4.466;2023-03-15T04:04:18;15.77;;;6.30;;
25972;SDS011;13765;51.166;4.466;2023-03-15T04:06:46;15.63;;;6.38;;
25972;SDS011;13765;51.166;4.466;2023-03-15T04:09:15;20.95;;;6.03;;
25972;SDS011;13765;51.166;4.466;2023-03-15T04:11:42;18.90;;;6.07;;
25972;SDS011;13765;51.166;4.466;2023-03-15T04:14:13;18.67;;;6.10;;
25972;SDS011;13765;51.166;4.466;2023-03-15T04:16:41;16.73;;;5.28;;
25972;SDS011;13765;51.166;4.466;2023-03-15T04:19:09;13.25;;;6.68;;
25972;SDS011;13765;51.166;4.466;2023-03-15T04:21:36;13.90;;;5.95;;
25972;SDS011;13765;51.166;4.466;2023-03-15T04:24:02;18.85;;;6.00;;
25972;SDS011;13765;51.166;4.466;2023-03-15T04:26:28;16.50;;;5.88;;
25972;SDS011;13765;51.166;4.466;2023-03-15T04:28:54;18.80;;;7.18;;
25972;SDS011;13765;51.166;4.466;2023-03-15T04:31:22;19.27;;;6.43;;
25972;SDS011;13765;51.166;4.466;2023-03-15T04:34:01;16.13;;;6.28;;
25972;SDS011;13765;51.166;4.466;2023-03-15T04:36:28;17.17;;;6.88;;
25972;SDS011;13765;51.166;4.466;2023-03-15T04:38:56;17.92;;;5.90;;
25972;SDS011;13765;51.166;4.466;2023-03-15T04:43:58;14.35;;;5.57;;
25972;SDS011;13765;51.166;4.466;2023-03-15T04:46:24;13.68;;;5.53;;
25972;SDS011;13765;51.166;4.466;2023-03-15T04:48:53;14.75;;;6.03;;
25972;SDS011;13765;51.166;4.466;2023-03-15T04:51:21;15.07;;;5.75;;
25972;SDS011;13765;51.166;4.466;2023-03-15T04:53:49;13.95;;;5.30;;
25972;SDS011;13765;51.166;4.466;2023-03-15T04:56:19;14.32;;;5.32;;
25972;SDS011;13765;51.166;4.466;2023-03-15T04:58:45;14.05;;;5.28;;
25972;SDS011;13765;51.166;4.466;2023-03-15T05:01:10;16.80;;;5.45;;
25972;SDS011;13765;51.166;4.466;2023-03-15T05:03:44;13.20;;;6.90;;
25972;SDS011;13765;51.166;4.466;2023-03-15T05:06:12;18.77;;;7.25;;
25972;SDS011;13765;51.166;4.466;2023-03-15T05:08:38;13.10;;;5.30;;
25972;SDS011;13765;51.166;4.466;2023-03-15T05:11:03;13.68;;;5.35;;
25972;SDS011;13765;51.166;4.466;2023-03-15T05:13:29;18.73;;;7.03;;
25972;SDS011;13765;51.166;4.466;2023-03-15T05:15:57;12.45;;;5.22;;
25972;SDS011;13765;51.166;4.466;2023-03-15T05:18:25;15.45;;;5.97;;
25972;SDS011;13765;51.166;4.466;2023-03-15T05:20:51;14.02;;;5.72;;
25972;SDS011;13765;51.166;4.466;2023-03-15T05:23:19;21.30;;;6.75;;
25972;SDS011;13765;51.166;4.466;2023-03-15T05:25:51;16.08;;;6.05;;
25972;SDS011;13765;51.166;4.466;2023-03-15T05:28:18;18.65;;;7.30;;
25972;SDS011;13765;51.166;4.466;2023-03-15T05:30:45;13.65;;;6.07;;
25972;SDS011;13765;51.166;4.466;2023-03-15T05:33:13;22.77;;;6.82;;
25972;SDS011;13765;51.166;4.466;2023-03-15T05:35:41;13.10;;;5.30;;
25972;SDS011;13765;51.166;4.466;2023-03-15T05:38:12;17.40;;;6.95;;
25972;SDS011;13765;51.166;4.466;2023-03-15T05:40:44;17.13;;;6.95;;
25972;SDS011;13765;51.166;4.466;2023-03-15T05:43:13;12.27;;;5.90;;
25972;SDS011;13765;51.166;4.466;2023-03-15T05:45:39;17.77;;;7.47;;
25972;SDS011;13765;51.166;4.466;2023-03-15T05:48:14;18.25;;;7.78;;
25972;SDS011;13765;51.166;4.466;2023-03-15T05:50:40;16.98;;;6.93;;
25972;SDS011;13765;51.166;4.466;2023-03-15T05:53:08;15.52;;;6.72;;
25972;SDS011;13765;51.166;4.466;2023-03-15T05:55:34;18.27;;;6.95;;
25972;SDS011;13765;51.166;4.466;2023-03-15T05:58:01;15.65;;;6.60;;
25972;SDS011;13765;51.166;4.466;2023-03-15T06:00:26;19.15;;;5.50;;
25972;SDS011;13765;51.166;4.466;2023-03-15T06:02:52;13.32;;;5.72;;
25972;SDS011;13765;51.166;4.466;2023-03-15T06:05:18;16.80;;;5.85;;
25972;SDS011;13765;51.166;4.466;2023-03-15T06:07:48;16.15;;;5.75;;
25972;SDS011;13765;51.166;4.466;2023-03-15T06:10:14;16.77;;;6.72;;
25972;SDS011;13765;51.166;4.466;2023-03-15T06:12:44;18.58;;;6.97;;
25972;SDS011;13765;51.166;4.466;2023-03-15T06:15:12;17.30;;;5.97;;
25972;SDS011;13765;51.166;4.466;2023-03-15T06:17:38;17.35;;;6.05;;
25972;SDS011;13765;51.166;4.466;2023-03-15T06:20:06;14.88;;;5.90;;
25972;SDS011;13765;51.166;4.466;2023-03-15T06:22:32;16.55;;;7.15;;
25972;SDS011;13765;51.166;4.466;2023-03-15T06:25:02;13.40;;;6.28;;
25972;SDS011;13765;51.166;4.466;2023-03-15T06:27:29;16.83;;;5.32;;
25972;SDS011;13765;51.166;4.466;2023-03-15T06:29:54;15.25;;;5.97;;
25972;SDS011;13765;51.166;4.466;2023-03-15T06:32:21;14.45;;;5.82;;
25972;SDS011;13765;51.166;4.466;2023-03-15T06:34:49;15.43;;;6.13;;
25972;SDS011;13765;51.166;4.466;2023-03-15T06:37:15;14.05;;;5.88;;
25972;SDS011;13765;51.166;4.466;2023-03-15T06:39:41;12.85;;;5.43;;
25972;SDS011;13765;51.166;4.466;2023-03-15T06:42:08;13.65;;;6.13;;
25972;SDS011;13765;51.166;4.466;2023-03-15T06:44:37;13.45;;;6.22;;
25972;SDS011;13765;51.166;4.466;2023-03-15T06:47:03;19.33;;;7.30;;
25972;SDS011;13765;51.166;4.466;2023-03-15T06:49:34;19.58;;;5.88;;
25972;SDS011;13765;51.166;4.466;2023-03-15T06:51:59;15.05;;;4.85;;
25972;SDS011;13765;51.166;4.466;2023-03-15T06:54:27;13.40;;;5.15;;
25972;SDS011;13765;51.166;4.466;2023-03-15T06:56:56;14.85;;;5.82;;
25972;SDS011;13765;51.166;4.466;2023-03-15T06:59:22;17.52;;;6.78;;
25972;SDS011;13765;51.166;4.466;2023-03-15T07:01:48;13.07;;;6.32;;
25972;SDS011;13765;51.166;4.466;2023-03-15T07:04:16;12.55;;;5.82;;
25972;SDS011;13765;51.166;4.466;2023-03-15T07:06:41;16.35;;;6.28;;
25972;SDS011;13765;51.166;4.466;2023-03-15T07:09:07;14.95;;;5.85;;
25972;SDS011;13765;51.166;4.466;2023-03-15T07:11:35;21.52;;;6.32;;
25972;SDS011;13765;51.166;4.466;2023-03-15T07:14:03;12.73;;;5.55;;
25972;SDS011;13765;51.166;4.466;2023-03-15T07:16:29;17.55;;;5.90;;
25972;SDS011;13765;51.166;4.466;2023-03-15T07:18:55;19.63;;;7.18;;
25972;SDS011;13765;51.166;4.466;2023-03-15T07:21:23;15.15;;;6.50;;
25972;SDS011;13765;51.166;4.466;2023-03-15T07:23:48;13.30;;;5.05;;
25972;SDS011;13765;51.166;4.466;2023-03-15T07:26:16;16.60;;;5.75;;
25972;SDS011;13765;51.166;4.466;2023-03-15T07:28:42;14.45;;;5.20;;
25972;SDS011;13765;51.166;4.466;2023-03-15T07:31:12;13.90;;;5.50;;
25972;SDS011;13765;51.166;4.466;2023-03-15T07:33:40;17.50;;;5.63;;
25972;SDS011;13765;51.166;4.466;2023-03-15T07:36:06;15.10;;;5.80;;
25972;SDS011;13765;51.166;4.466;2023-03-15T07:38:35;16.75;;;5.85;;
25972;SDS011;13765;51.166;4.466;2023-03-15T07:41:02;15.75;;;5.10;;
25972;SDS011;13765;51.166;4.466;2023-03-15T07:43:29;13.35;;;5.30;;
25972;SDS011;13765;51.166;4.466;2023-03-15T07:45:57;19.58;;;4.85;;
25972;SDS011;13765;51.166;4.466;2023-03-15T07:48:22;10.68;;;4.18;;
25972;SDS011;13765;51.166;4.466;2023-03-15T07:50:51;14.80;;;4.85;;
25972;SDS011;13765;51.166;4.466;2023-03-15T07:53:18;13.23;;;4.60;;
25972;SDS011;13765;51.166;4.466;2023-03-15T07:55:45;9.57;;;4.10;;
25972;SDS011;13765;51.166;4.466;2023-03-15T07:58:11;11.05;;;5.28;;
25972;SDS011;13765;51.166;4.466;2023-03-15T08:00:37;24.40;;;4.85;;
25972;SDS011;13765;51.166;4.466;2023-03-15T08:03:03;11.63;;;3.97;;
25972;SDS011;13765;51.166;4.466;2023-03-15T08:05:29;11.13;;;4.32;;
25972;SDS011;13765;51.166;4.466;2023-03-15T08:07:55;10.27;;;4.60;;
25972;SDS011;13765;51.166;4.466;2023-03-15T08:10:21;12.20;;;4.95;;
25972;SDS011;13765;51.166;4.466;2023-03-15T08:12:49;13.80;;;4.95;;
25972;SDS011;13765;51.166;4.466;2023-03-15T08:15:17;19.50;;;4.57;;
25972;SDS011;13765;51.166;4.466;2023-03-15T08:20:16;15.02;;;4.40;;
25972;SDS011;13765;51.166;4.466;2023-03-15T08:22:44;10.70;;;4.35;;
25972;SDS011;13765;51.166;4.466;2023-03-15T08:25:14;13.15;;;3.53;;
25972;SDS011;13765;51.166;4.466;2023-03-15T08:27:42;14.25;;;4.53;;
25972;SDS011;13765;51.166;4.466;2023-03-15T08:30:11;10.93;;;4.10;;
25972;SDS011;13765;51.166;4.466;2023-03-15T08:32:41;9.52;;;4.00;;
25972;SDS011;13765;51.166;4.466;2023-03-15T08:35:09;8.20;;;3.50;;
25972;SDS011;13765;51.166;4.466;2023-03-15T08:37:38;9.40;;;3.78;;
25972;SDS011;13765;51.166;4.466;2023-03-15T08:40:07;9.23;;;4.00;;
25972;SDS011;13765;51.166;4.466;2023-03-15T08:42:36;8.93;;;3.33;;
25972;SDS011;13765;51.166;4.466;2023-03-15T08:45:05;10.43;;;3.58;;
25972;SDS011;13765;51.166;4.466;2023-03-15T08:47:35;9.88;;;3.83;;
25972;SDS011;13765;51.166;4.466;2023-03-15T08:50:02;12.13;;;3.33;;
25972;SDS011;13765;51.166;4.466;2023-03-15T08:52:32;17.38;;;5.05;;
25972;SDS011;13765;51.166;4.466;2023-03-15T08:54:58;11.35;;;3.85;;
25972;SDS011;13765;51.166;4.466;2023-03-15T08:57:24;13.18;;;3.80;;
25972;SDS011;13765;51.166;4.466;2023-03-15T08:59:53;13.43;;;3.17;;
25972;SDS011;13765;51.166;4.466;2023-03-15T09:02:20;6.50;;;2.95;;
25972;SDS011;13765;51.166;4.466;2023-03-15T09:04:47;15.98;;;4.30;;
25972;SDS011;13765;51.166;4.466;2023-03-15T09:07:12;6.07;;;3.45;;
25972;SDS011;13765;51.166;4.466;2023-03-15T09:09:39;17.30;;;4.13;;
25972;SDS011;13765;51.166;4.466;2023-03-15T09:12:08;12.80;;;4.93;;
25972;SDS011;13765;51.166;4.466;2023-03-15T09:14:38;8.80;;;3.75;;
25972;SDS011;13765;51.166;4.466;2023-03-15T09:17:06;10.90;;;4.10;;
25972;SDS011;13765;51.166;4.466;2023-03-15T09:19:32;10.38;;;3.88;;
25972;SDS011;13765;51.166;4.466;2023-03-15T09:21:57;15.88;;;4.68;;
25972;SDS011;13765;51.166;4.466;2023-03-15T09:24:23;11.70;;;4.57;;
25972;SDS011;13765;51.166;4.466;2023-03-15T09:26:51;13.60;;;4.15;;
25972;SDS011;13765;51.166;4.466;2023-03-15T09:29:19;10.68;;;4.38;;
25972;SDS011;13765;51.166;4.466;2023-03-15T09:31:47;12.80;;;3.92;;
25972;SDS011;13765;51.166;4.466;2023-03-15T09:34:15;13.27;;;4.05;;
25972;SDS011;13765;51.166;4.466;2023-03-15T09:36:43;13.32;;;4.45;;
25972;SDS011;13765;51.166;4.466;2023-03-15T09:39:20;10.73;;;3.92;;
25972;SDS011;13765;51.166;4.466;2023-03-15T09:50:05;9.55;;;2.63;;
25972;SDS011;13765;51.166;4.466;2023-03-15T09:52:59;10.70;;;3.35;;
25972;SDS011;13765;51.166;4.466;2023-03-15T09:55:32;5.67;;;2.70;;
25972;SDS011;13765;51.166;4.466;2023-03-15T09:58:00;7.63;;;3.38;;
25972;SDS011;13765;51.166;4.466;2023-03-15T10:03:08;11.60;;;3.97;;
25972;SDS011;13765;51.166;4.466;2023-03-15T10:05:55;5.45;;;2.85;;
25972;SDS011;13765;51.166;4.466;2023-03-15T10:08:42;6.70;;;2.97;;
25972;SDS011;13765;51.166;4.466;2023-03-15T10:16:54;6.65;;;2.30;;
25972;SDS011;13765;51.166;4.466;2023-03-15T10:19:38;5.53;;;2.58;;
25972;SDS011;13765;51.166;4.466;2023-03-15T10:25:17;4.78;;;2.00;;
25972;SDS011;13765;51.166;4.466;2023-03-15T10:27:44;8.35;;;1.85;;
25972;SDS011;13765;51.166;4.466;2023-03-15T10:32:42;6.00;;;1.80;;
25972;SDS011;13765;51.166;4.466;2023-03-15T10:35:11;2.03;;;1.42;;
25972;SDS011;13765;51.166;4.466;2023-03-15T10:37:39;2.35;;;1.38;;
25972;SDS011;13765;51.166;4.466;2023-03-15T10:40:09;10.50;;;2.10;;
25972;SDS011;13765;51.166;4.466;2023-03-15T10:45:22;5.90;;;1.38;;
25972;SDS011;13765;51.166;4.466;2023-03-15T10:47:52;11.77;;;2.22;;
25972;SDS011;13765;51.166;4.466;2023-03-15T10:50:29;15.15;;;1.85;;
25972;SDS011;13765;51.166;4.466;2023-03-15T10:52:57;3.13;;;1.83;;
25972;SDS011;13765;51.166;4.466;2023-03-15T10:55:34;7.30;;;1.52;;
25972;SDS011;13765;51.166;4.466;2023-03-15T10:58:16;14.75;;;1.80;;
25972;SDS011;13765;51.166;4.466;2023-03-15T11:01:04;6.68;;;1.80;;
25972;SDS011;13765;51.166;4.466;2023-03-15T11:03:34;10.18;;;2.95;;
25972;SDS011;13765;51.166;4.466;2023-03-15T11:06:17;3.67;;;1.63;;
25972;SDS011;13765;51.166;4.466;2023-03-15T11:08:45;8.80;;;2.05;;
25972;SDS011;13765;51.166;4.466;2023-03-15T11:11:10;17.20;;;3.53;;
25972;SDS011;13765;51.166;4.466;2023-03-15T11:13:37;12.13;;;2.58;;
25972;SDS011;13765;51.166;4.466;2023-03-15T11:21:27;4.95;;;1.83;;
25972;SDS011;13765;51.166;4.466;2023-03-15T11:24:00;10.98;;;2.80;;
25972;SDS011;13765;51.166;4.466;2023-03-15T11:26:37;22.03;;;3.53;;
25972;SDS011;13765;51.166;4.466;2023-03-15T11:29:13;15.63;;;4.15;;
25972;SDS011;13765;51.166;4.466;2023-03-15T11:31:42;24.33;;;5.20;;
25972;SDS011;13765;51.166;4.466;2023-03-15T11:34:12;6.97;;;2.45;;
25972;SDS011;13765;51.166;4.466;2023-03-15T11:36:53;22.73;;;5.10;;
25972;SDS011;13765;51.166;4.466;2023-03-15T11:39:44;31.77;;;8.38;;
25972;SDS011;13765;51.166;4.466;2023-03-15T11:42:21;13.68;;;3.00;;
25972;SDS011;13765;51.166;4.466;2023-03-15T11:45:10;11.88;;;2.92;;
25972;SDS011;13765;51.166;4.466;2023-03-15T11:47:42;20.40;;;4.88;;
25972;SDS011;13765;51.166;4.466;2023-03-15T11:50:35;13.85;;;3.72;;
25972;SDS011;13765;51.166;4.466;2023-03-15T11:53:01;10.48;;;2.78;;
25972;SDS011;13765;51.166;4.466;2023-03-15T11:55:31;14.95;;;3.38;;
25972;SDS011;13765;51.166;4.466;2023-03-15T11:57:57;16.33;;;3.30;;
25972;SDS011;13765;51.166;4.466;2023-03-15T12:00:53;39.40;;;8.55;;
25972;SDS011;13765;51.166;4.466;2023-03-15T12:06:10;7.90;;;2.78;;
25972;SDS011;13765;51.166;4.466;2023-03-15T12:11:12;2.05;;;1.25;;
25972;SDS011;13765;51.166;4.466;2023-03-15T12:16:27;1.95;;;1.00;;
25972;SDS011;13765;51.166;4.466;2023-03-15T12:18:59;3.85;;;1.75;;
25972;SDS011;13765;51.166;4.466;2023-03-15T12:21:33;9.52;;;1.23;;
25972;SDS011;13765;51.166;4.466;2023-03-15T12:24:04;1.30;;;1.17;;
25972;SDS011;13765;51.166;4.466;2023-03-15T12:26:56;5.78;;;1.95;;
25972;SDS011;13765;51.166;4.466;2023-03-15T12:29:27;7.45;;;2.13;;
25972;SDS011;13765;51.166;4.466;2023-03-15T12:34:29;4.45;;;1.48;;
25972;SDS011;13765;51.166;4.466;2023-03-15T12:39:46;3.58;;;1.77;;
25972;SDS011;13765;51.166;4.466;2023-03-15T12:56:16;8.75;;;2.63;;
25972;SDS011;13765;51.166;4.466;2023-03-15T13:01:47;13.43;;;3.53;;
25972;SDS011;13765;51.166;4.466;2023-03-15T13:04:17;3.47;;;1.60;;
25972;SDS011;13765;51.166;4.466;2023-03-15T13:07:06;15.18;;;3.90;;
25972;SDS011;13765;51.166;4.466;2023-03-15T13:13:00;16.33;;;3.17;;
25972;SDS011;13765;51.166;4.466;2023-03-15T13:18:54;3.70;;;1.88;;
25972;SDS011;13765;51.166;4.466;2023-03-15T13:21:34;10.35;;;2.80;;
25972;SDS011;13765;51.166;4.466;2023-03-15T13:24:02;29.08;;;8.55;;
25972;SDS011;13765;51.166;4.466;2023-03-15T13:29:13;17.45;;;5.28;;
25972;SDS011;13765;51.166;4.466;2023-03-15T13:31:45;17.50;;;4.57;;
25972;SDS011;13765;51.166;4.466;2023-03-15T13:34:23;9.30;;;2.50;;
25972;SDS011;13765;51.166;4.466;2023-03-15T13:36:53;3.92;;;1.75;;
25972;SDS011;13765;51.166;4.466;2023-03-15T13:39:21;4.07;;;1.83;;
25972;SDS011;13765;51.166;4.466;2023-03-15T13:41:55;4.75;;;1.80;;
25972;SDS011;13765;51.166;4.466;2023-03-15T13:44:26;3.72;;;1.77;;
25972;SDS011;13765;51.166;4.466;2023-03-15T13:46:53;4.65;;;1.70;;
25972;SDS011;13765;51.166;4.466;2023-03-15T13:49:20;3.80;;;1.58;;
25972;SDS011;13765;51.166;4.466;2023-03-15T13:51:46;5.97;;;2.20;;
25972;SDS011;13765;51.166;4.466;2023-03-15T13:59:40;4.70;;;1.83;;
25972;SDS011;13765;51.166;4.466;2023-03-15T14:05:12;4.28;;;2.00;;
25972;SDS011;13765;51.166;4.466;2023-03-15T14:07:46;4.82;;;2.28;;
25972;SDS011;13765;51.166;4.466;2023-03-15T14:12:55;7.72;;;2.15;;
25972;SDS011;13765;51.166;4.466;2023-03-15T14:15:24;6.40;;;2.20;;
25972;SDS011;13765;51.166;4.466;2023-03-15T14:20:46;5.97;;;1.95;;
25972;SDS011;13765;51.166;4.466;2023-03-15T14:23:18;3.28;;;1.60;;
25972;SDS011;13765;51.166;4.466;2023-03-15T14:25:53;11.57;;;2.20;;
25972;SDS011;13765;51.166;4.466;2023-03-15T14:28:36;10.10;;;3.08;;
25972;SDS011;13765;51.166;4.466;2023-03-15T14:31:04;8.23;;;2.60;;
25972;SDS011;13765;51.166;4.466;2023-03-15T14:33:35;11.48;;;3.42;;
25972;SDS011;13765;51.166;4.466;2023-03-15T14:36:07;8.07;;;2.40;;
25972;SDS011;13765;51.166;4.466;2023-03-15T14:38:52;19.33;;;5.18;;
25972;SDS011;13765;51.166;4.466;2023-03-15T14:43:55;15.27;;;2.95;;
25972;SDS011;13765;51.166;4.466;2023-03-15T14:46:23;11.27;;;3.22;;
25972;SDS011;13765;51.166;4.466;2023-03-15T14:48:51;11.13;;;3.15;;
25972;SDS011;13765;51.166;4.466;2023-03-15T14:51:18;18.55;;;3.83;;
25972;SDS011;13765;51.166;4.466;2023-03-15T14:53:46;10.35;;;2.78;;
25972;SDS011;13765;51.166;4.466;2023-03-15T14:56:15;10.48;;;3.75;;
25972;SDS011;13765;51.166;4.466;2023-03-15T14:58:41;2.50;;;1.45;;
25972;SDS011;13765;51.166;4.466;2023-03-15T15:01:09;4.15;;;1.45;;
25972;SDS011;13765;51.166;4.466;2023-03-15T15:03:44;3.55;;;1.38;;
25972;SDS011;13765;51.166;4.466;2023-03-15T15:06:12;6.47;;;1.67;;
25972;SDS011;13765;51.166;4.466;2023-03-15T15:08:40;12.48;;;1.70;;
25972;SDS011;13765;51.166;4.466;2023-03-15T15:11:10;11.77;;;2.10;;
25972;SDS011;13765;51.166;4.466;2023-03-15T15:13:37;6.53;;;1.67;;
25972;SDS011;13765;51.166;4.466;2023-03-15T15:16:08;2.25;;;1.10;;
25972;SDS011;13765;51.166;4.466;2023-03-15T15:18:34;1.27;;;1.17;;
25972;SDS011;13765;51.166;4.466;2023-03-15T15:21:13;4.50;;;1.20;;
25972;SDS011;13765;51.166;4.466;2023-03-15T15:23:43;1.90;;;0.95;;
25972;SDS011;13765;51.166;4.466;2023-03-15T15:26:16;1.08;;;1.00;;
25972;SDS011;13765;51.166;4.466;2023-03-15T15:28:45;2.97;;;1.58;;
25972;SDS011;13765;51.166;4.466;2023-03-15T15:31:14;1.27;;;1.17;;
25972;SDS011;13765;51.166;4.466;2023-03-15T15:33:55;9.30;;;1.52;;
25972;SDS011;13765;51.166;4.466;2023-03-15T15:36:25;6.85;;;1.13;;
25972;SDS011;13765;51.166;4.466;2023-03-15T15:38:53;5.95;;;1.38;;
25972;SDS011;13765;51.166;4.466;2023-03-15T15:41:23;5.45;;;1.30;;
25972;SDS011;13765;51.166;4.466;2023-03-15T15:43:54;1.35;;;0.63;;
25972;SDS011;13765;51.166;4.466;2023-03-15T15:46:20;9.07;;;1.70;;
25972;SDS011;13765;51.166;4.466;2023-03-15T15:48:50;3.03;;;1.80;;
25972;SDS011;13765;51.166;4.466;2023-03-15T15:54:24;6.55;;;2.25;;
25972;SDS011;13765;51.166;4.466;2023-03-15T15:56:51;4.35;;;1.70;;
25972;SDS011;13765;51.166;4.466;2023-03-15T15:59:20;5.45;;;1.55;;
25972;SDS011;13765;51.166;4.466;2023-03-15T16:01:52;10.10;;;3.00;;
25972;SDS011;13765;51.166;4.466;2023-03-15T16:04:26;5.75;;;1.92;;
25972;SDS011;13765;51.166;4.466;2023-03-15T16:06:56;8.00;;;2.28;;
25972;SDS011;13765;51.166;4.466;2023-03-15T16:09:26;7.63;;;2.05;;
25972;SDS011;13765;51.166;4.466;2023-03-15T16:11:54;18.92;;;4.80;;
25972;SDS011;13765;51.166;4.466;2023-03-15T16:14:19;13.50;;;3.10;;
25972;SDS011;13765;51.166;4.466;2023-03-15T16:16:47;4.32;;;1.60;;
25972;SDS011;13765;51.166;4.466;2023-03-15T16:19:13;14.35;;;3.28;;
25972;SDS011;13765;51.166;4.466;2023-03-15T16:24:16;10.60;;;1.95;;
25972;SDS011;13765;51.166;4.466;2023-03-15T16:26:52;18.27;;;3.45;;
25972;SDS011;13765;51.166;4.466;2023-03-15T16:29:27;40.13;;;9.55;;
25972;SDS011;13765;51.166;4.466;2023-03-15T16:32:09;4.68;;;1.17;;
25972;SDS011;13765;51.166;4.466;2023-03-15T16:37:08;2.40;;;0.93;;
25972;SDS011;13765;51.166;4.466;2023-03-15T16:39:43;4.75;;;1.20;;
25972;SDS011;13765;51.166;4.466;2023-03-15T16:42:11;1.45;;;0.90;;